Startpagina
METAR-TAF:

METAR-TAF

Vliegvelden :

Elsenborn

Bütgenbach, België

breedte: 50-28N, lengte: 006-11E, hoogte: 564 m

Actueel weer

Dit bericht is 17 minuten geleden gemaakt, om 22:14 UTC
Wind 4 kt uit het westzuidwesten
Temperatuur 16°C
Vochtigheid 100%
Druk 1018 hPa
Zicht: 5000 m

METAR: EBLB 192214Z AUTO 24004KT 5000 OVC002/// 16/16 Q1018 AMB

Tijdstip: 00:31 (22:31 UTC)


TAF: ontbreekt

Waarnemingen en weersverwachtingen van meer dan 4000 vliegvelden (METAR en TAF).

De beschikbare stations zijn de gele en rode punten op de kaart.

Ga met uw muis naar het station om de naam te zien.

Klik dan om waarnemingen en weersverwachtingen te zien.

kaart wijzigen: klik op de groene knoppen met een zwart kruis om in te zoomen, op de groene knop met een streepje om uit te zoomen of op de groene pijlen voor aangrenzende kaarten.


METAR-TAF: